KINS

Details ICAO KINS (INS)
Name CREECH AFB
Region United States
Timezone America/Los_Angeles (UTC-8.0)
Plans Departing 6
Arriving 2
Stats Elevation 3,133 ft / 955 m (AMSL)
Location 36.586675° -115.676579°
Runways 2
Magnetic Variation 11.969° E
Sunrise 2017-01-17 14:54:22 UTC / 2017-01-17 06:54:22 Local
Sunset 2017-01-18 00:53:41 UTC / 2017-01-17 16:53:41 Local
Advertisement - Login to hide

Runways

ID Width Length Bearing (true) Bearing (mag) Surface Threshold Offset Overrun Length
08 150 ft / 46 m 8,984 ft / 2,738 m 92.33° 80.36° Asphalt 0 ft / 0 m 1,000 ft / 305 m
13 100 ft / 30 m 4,896 ft / 1,492 m 145.01° 133.04° Asphalt 468 ft / 143 m 450 ft / 137 m
26 150 ft / 46 m 8,984 ft / 2,738 m 272.35° 260.38° Asphalt 0 ft / 0 m 1,000 ft / 305 m
31 100 ft / 30 m 4,896 ft / 1,492 m 325.02° 313.05° Asphalt 0 ft / 0 m 300 ft / 91 m

Map

Weather

Temperature
Clouds and Precipitation
Forecast for 2017-01-18 06:00 UTC. Updated 5 minutes ago
Winds

METAR

KINS 180058Z AUTO 29004KT 10SM CLR 09/M05 A3013 RMK AO2 SLP204 T00881053 $

TAF

Not found

Frequencies

Recorded 121.12 MHz ASOS
Tower 118.30 MHz TWR
Ground 118.30 MHz GND
Warning: Do not use this data for real-world aviation or navigation. No guarantee of current accuracy is given.